createdAt,value
2018-06-15T00:02:09.286Z,97795.75
2018-06-15T00:04:36.846Z,97802.09
2018-06-15T00:07:04.474Z,97804.35
2018-06-15T00:09:32.028Z,97813.88
2018-06-15T00:11:59.614Z,97818.93
2018-06-15T00:14:27.146Z,97815.28
2018-06-15T00:16:54.766Z,97811.96
2018-06-15T00:19:22.275Z,97814.40
2018-06-15T00:21:49.902Z,97818.22
2018-06-15T00:24:17.487Z,97817.06
2018-06-15T00:26:45.044Z,97814.04
2018-06-15T00:29:12.602Z,97814.67
2018-06-15T00:31:40.175Z,97818.86
2018-06-15T00:34:07.743Z,97820.48
2018-06-15T00:36:35.296Z,97817.46
2018-06-15T00:39:03.294Z,97814.94
2018-06-15T00:41:30.834Z,97819.36
2018-06-15T00:43:58.381Z,97822.65
2018-06-15T00:46:25.964Z,97823.94
2018-06-15T00:48:53.525Z,97824.58
2018-06-15T00:51:21.052Z,97817.59
2018-06-15T00:53:48.632Z,97820.89
2018-06-15T00:56:16.183Z,97817.59
2018-06-15T00:58:43.714Z,97818.09
2018-06-15T01:01:11.284Z,97811.61
2018-06-15T01:03:38.875Z,97816.20
2018-06-15T01:06:06.435Z,97820.87
2018-06-15T01:08:34.010Z,97820.25
2018-06-15T01:11:01.542Z,97817.45
2018-06-15T01:13:29.102Z,97826.19
2018-06-15T01:15:56.675Z,97824.14
2018-06-15T01:18:24.215Z,97819.95
2018-06-15T01:20:51.760Z,97820.08
2018-06-15T01:23:19.335Z,97827.82
2018-06-15T01:25:46.856Z,97821.99
2018-06-15T01:28:14.425Z,97818.94
2018-06-15T01:30:42.014Z,97818.06
2018-06-15T01:33:09.546Z,97818.82
2018-06-15T01:35:37.099Z,97817.66
2018-06-15T01:38:04.749Z,97819.19
2018-06-15T01:40:32.278Z,97815.14
2018-06-15T01:42:59.842Z,97818.42
2018-06-15T01:45:27.394Z,97815.64
2018-06-15T01:47:55.014Z,97829.33
2018-06-15T01:50:22.587Z,97828.81
2018-06-15T01:52:50.527Z,97834.52
2018-06-15T01:55:18.120Z,97826.52
2018-06-15T01:57:45.932Z,97829.30
2018-06-15T02:00:13.485Z,97831.86
2018-06-15T02:02:41.244Z,97832.22
2018-06-15T02:05:08.852Z,97830.45
2018-06-15T02:07:36.402Z,97843.23
2018-06-15T02:10:04.107Z,97839.81
2018-06-15T02:12:31.642Z,97839.05
2018-06-15T02:14:59.241Z,97841.06
2018-06-15T02:17:26.766Z,97839.65
2018-06-15T02:19:55.250Z,97835.58
2018-06-15T02:22:22.823Z,97838.08
2018-06-15T02:24:50.370Z,97843.14
2018-06-15T02:27:17.922Z,97835.52
2018-06-15T02:29:45.514Z,97841.18
2018-06-15T02:32:13.052Z,97835.45
2018-06-15T02:34:40.622Z,97843.51
2018-06-15T02:37:08.209Z,97845.26
2018-06-15T02:39:35.746Z,97845.26
2018-06-15T02:42:03.318Z,97848.19
2018-06-15T02:44:30.882Z,97846.44
2018-06-15T02:46:58.418Z,97846.05
2018-06-15T02:49:25.959Z,97849.84
2018-06-15T02:51:53.656Z,97847.94
2018-06-15T02:54:21.195Z,97851.05
2018-06-15T02:56:48.832Z,97851.30
2018-06-15T02:59:16.403Z,97852.66
2018-06-15T03:01:43.970Z,97856.18
2018-06-15T03:04:11.515Z,97861.23
2018-06-15T03:06:39.110Z,97867.15
2018-06-15T03:09:07.154Z,97867.81
2018-06-15T03:11:34.696Z,97870.73
2018-06-15T03:14:02.306Z,97872.03
2018-06-15T03:16:29.838Z,97874.60
2018-06-15T03:18:57.370Z,97872.20
2018-06-15T03:21:24.911Z,97869.55
2018-06-15T03:23:52.470Z,97872.20
2018-06-15T03:26:20.019Z,97873.17
2018-06-15T03:28:47.599Z,97869.88
2018-06-15T03:31:15.210Z,97871.81
2018-06-15T03:33:42.754Z,97876.52
2018-06-15T03:36:10.331Z,97886.03
2018-06-15T03:38:37.854Z,97880.73
2018-06-15T03:41:05.432Z,97881.40
2018-06-15T03:43:33.075Z,97879.20
2018-06-15T03:46:00.615Z,97886.03
2018-06-15T03:48:28.150Z,97887.28
2018-06-15T03:50:55.722Z,97884.14
2018-06-15T03:53:23.260Z,97889.86
2018-06-15T03:55:50.808Z,97892.47
2018-06-15T03:58:18.387Z,97888.70
2018-06-15T04:00:45.975Z,97888.15
2018-06-15T04:03:13.534Z,97887.19
2018-06-15T04:05:41.092Z,97890.02
2018-06-15T04:08:08.632Z,97886.50
2018-06-15T04:10:36.306Z,97894.53
2018-06-15T04:13:03.885Z,97896.61
2018-06-15T04:15:31.526Z,97888.52
2018-06-15T04:18:06.172Z,97888.89
2018-06-15T04:20:34.606Z,97889.44
2018-06-15T04:23:02.362Z,97892.88
2018-06-15T04:25:30.435Z,97897.37
2018-06-15T04:27:57.958Z,97895.34
2018-06-15T04:30:25.483Z,97905.89
2018-06-15T04:32:53.141Z,97902.96
2018-06-15T04:35:20.654Z,97901.70
2018-06-15T04:37:48.203Z,97906.02
2018-06-15T04:40:15.850Z,97905.38
2018-06-15T04:42:43.762Z,97905.13
2018-06-15T04:45:11.306Z,97905.25
2018-06-15T04:47:38.970Z,97901.05
2018-06-15T04:50:07.046Z,97894.05
2018-06-15T04:52:34.593Z,97896.56
2018-06-15T04:55:02.165Z,97900.24
2018-06-15T04:57:29.938Z,97903.43
2018-06-15T04:59:57.975Z,97911.29
2018-06-15T05:02:25.614Z,97914.84
2018-06-15T05:04:53.139Z,97914.84
2018-06-15T05:07:20.658Z,97914.95
2018-06-15T05:09:48.213Z,97916.25
2018-06-15T05:12:15.817Z,97914.42
2018-06-15T05:14:43.370Z,97913.80
2018-06-15T05:17:10.963Z,97910.36
2018-06-15T05:19:38.554Z,97913.91
2018-06-15T05:22:06.233Z,97914.53
2018-06-15T05:24:33.786Z,97914.77
2018-06-15T05:27:01.400Z,97910.08
2018-06-15T05:29:28.914Z,97916.44
2018-06-15T05:31:56.558Z,97914.16
2018-06-15T05:34:24.070Z,97920.59
2018-06-15T05:36:51.590Z,97918.06
2018-06-15T05:39:19.152Z,97927.73
2018-06-15T05:41:46.691Z,97922.52
2018-06-15T05:44:14.203Z,97924.73
2018-06-15T05:46:41.807Z,97922.31
2018-06-15T05:49:09.344Z,97922.98
2018-06-15T05:51:36.888Z,97925.88
2018-06-15T05:54:04.527Z,97924.23
2018-06-15T05:56:32.028Z,97923.52
2018-06-15T05:58:59.567Z,97928.05
2018-06-15T06:01:27.127Z,97930.28
2018-06-15T06:03:54.949Z,97932.62
2018-06-15T06:06:22.598Z,97936.44
2018-06-15T06:08:50.145Z,97940.28
2018-06-15T06:11:17.657Z,97940.44
2018-06-15T06:13:45.190Z,97934.89
2018-06-15T06:16:12.829Z,97943.73
2018-06-15T06:18:40.349Z,97939.92
2018-06-15T06:21:07.891Z,97942.33
2018-06-15T06:23:35.448Z,97939.73
2018-06-15T06:26:03.002Z,97952.03
2018-06-15T06:28:30.554Z,97943.63
2018-06-15T06:30:58.098Z,97948.77
2018-06-15T06:33:25.680Z,97947.23
2018-06-15T06:35:53.215Z,97943.33
2018-06-15T06:38:20.803Z,97945.00
2018-06-15T06:40:48.354Z,97944.15
2018-06-15T06:43:15.879Z,97945.77
2018-06-15T06:45:43.430Z,97943.74
2018-06-15T06:48:10.951Z,97948.55
2018-06-15T06:50:38.556Z,97951.25
2018-06-15T06:53:06.082Z,97948.08
2018-06-15T06:55:33.952Z,97954.41
2018-06-15T06:58:01.537Z,97957.52
2018-06-15T07:00:29.089Z,97953.98
2018-06-15T07:02:57.269Z,97952.22
2018-06-15T07:05:24.798Z,97945.40
2018-06-15T07:07:52.361Z,97941.63
2018-06-15T07:10:19.935Z,97945.08
2018-06-15T07:12:47.487Z,97948.22
2018-06-15T07:15:15.053Z,97947.78
2018-06-15T07:17:42.592Z,97942.72
2018-06-15T07:20:10.135Z,97948.99
2018-06-15T07:22:37.700Z,97943.54
2018-06-15T07:25:05.234Z,97944.91
2018-06-15T07:27:32.752Z,97947.26
2018-06-15T07:30:00.303Z,97944.53
2018-06-15T07:32:27.873Z,97950.13
2018-06-15T07:34:55.445Z,97947.45
2018-06-15T07:37:22.994Z,97953.28
2018-06-15T07:39:50.520Z,97951.70
2018-06-15T07:42:18.054Z,97948.89
2018-06-15T07:44:45.607Z,97942.95
2018-06-15T07:47:13.129Z,97944.95
2018-06-15T07:49:40.659Z,97940.96
2018-06-15T07:52:08.211Z,97943.83
2018-06-15T07:54:35.734Z,97940.07
2018-06-15T07:57:03.278Z,97936.60
2018-06-15T07:59:30.871Z,97934.27
2018-06-15T08:01:58.361Z,97935.88
2018-06-15T08:04:25.947Z,97935.16
2018-06-15T08:06:53.498Z,97940.63
2018-06-15T08:09:21.022Z,97935.15
2018-06-15T08:11:48.538Z,97941.67
2018-06-15T08:14:16.105Z,97942.92
2018-06-15T08:16:43.638Z,97938.58
2018-06-15T08:19:11.205Z,97938.48
2018-06-15T08:21:38.798Z,97935.05
2018-06-15T08:24:06.715Z,97932.82
2018-06-15T08:26:34.238Z,97931.95
2018-06-15T08:29:01.798Z,97932.88
2018-06-15T08:31:29.981Z,97931.20
2018-06-15T08:33:57.520Z,97936.16
2018-06-15T08:36:25.063Z,97934.17
2018-06-15T08:38:52.586Z,97929.41
2018-06-15T08:41:20.119Z,97932.28
2018-06-15T08:43:47.675Z,97929.11
2018-06-15T08:46:15.205Z,97932.14
2018-06-15T08:48:42.730Z,97936.66
2018-06-15T08:51:10.324Z,97930.16
2018-06-15T08:53:37.930Z,97939.48
2018-06-15T08:56:05.490Z,97930.47
2018-06-15T08:58:33.269Z,97931.45
2018-06-15T09:01:00.786Z,97934.71
2018-06-15T09:03:28.311Z,97932.51
2018-06-15T09:05:55.974Z,97932.34
2018-06-15T09:08:23.510Z,97937.44
2018-06-15T09:10:51.033Z,97943.41
2018-06-15T09:13:18.603Z,97946.70
2018-06-15T09:15:46.126Z,97944.23
2018-06-15T09:18:13.688Z,97942.80
2018-06-15T09:20:48.023Z,97943.17
2018-06-15T09:23:15.699Z,97948.64
2018-06-15T09:25:43.214Z,97948.75
2018-06-15T09:28:10.773Z,97942.98
2018-06-15T09:30:38.274Z,97931.88
2018-06-15T09:33:05.785Z,97934.41
2018-06-15T09:35:33.382Z,97933.70
2018-06-15T09:38:00.952Z,97925.70
2018-06-15T09:40:28.467Z,97929.38
2018-06-15T09:42:56.002Z,97929.69
2018-06-15T09:45:23.514Z,97929.83
2018-06-15T09:47:51.035Z,97924.12
2018-06-15T09:50:18.578Z,97930.78
2018-06-15T09:52:46.088Z,97931.81
2018-06-15T09:55:13.622Z,97929.03
2018-06-15T09:57:41.184Z,97931.08
2018-06-15T10:00:08.701Z,97929.58
2018-06-15T10:02:36.251Z,97935.84
2018-06-15T10:05:03.833Z,97930.83
2018-06-15T10:07:31.346Z,97933.17
2018-06-15T10:09:58.858Z,97937.34
2018-06-15T10:12:26.390Z,97936.00
2018-06-15T10:14:53.898Z,97940.98
2018-06-15T10:17:21.405Z,97929.48
2018-06-15T10:19:48.958Z,97935.06
2018-06-15T10:22:16.490Z,97928.45
2018-06-15T10:24:44.003Z,97926.94
2018-06-15T10:27:11.605Z,97924.77
2018-06-15T10:29:39.108Z,97925.06
2018-06-15T10:32:06.655Z,97921.18
2018-06-15T10:34:34.203Z,97927.50
2018-06-15T10:37:01.734Z,97925.27
2018-06-15T10:39:29.270Z,97922.84
2018-06-15T10:41:56.834Z,97915.48
2018-06-15T10:44:24.354Z,97914.91
2018-06-15T10:46:51.884Z,97917.72
2018-06-15T10:49:19.442Z,97911.63
2018-06-15T10:51:46.970Z,97912.40
2018-06-15T10:54:14.485Z,97907.61
2018-06-15T10:56:42.046Z,97909.83
2018-06-15T10:59:09.606Z,97910.23
2018-06-15T11:01:37.189Z,97908.23
2018-06-15T11:04:04.798Z,97909.44
2018-06-15T11:06:32.297Z,97906.27
2018-06-15T11:08:59.851Z,97910.19
2018-06-15T11:11:27.447Z,97904.94
2018-06-15T11:13:54.955Z,97902.82
2018-06-15T11:16:22.478Z,97894.69
2018-06-15T11:18:50.035Z,97898.81
2018-06-15T11:21:17.559Z,97895.78
2018-06-15T11:23:45.074Z,97894.78
2018-06-15T11:26:12.627Z,97895.38
2018-06-15T11:28:40.191Z,97896.06
2018-06-15T11:31:07.764Z,97899.91
2018-06-15T11:33:35.307Z,97900.61
2018-06-15T11:36:02.843Z,97896.33
2018-06-15T11:38:30.350Z,97890.31
2018-06-15T11:40:57.975Z,97893.80
2018-06-15T11:43:25.470Z,97898.53
2018-06-15T11:45:52.986Z,97897.48
2018-06-15T11:48:20.533Z,97901.64
2018-06-15T11:50:48.059Z,97900.97
2018-06-15T11:53:15.587Z,97900.48
2018-06-15T11:55:43.136Z,97899.91
2018-06-15T11:58:10.683Z,97895.05
2018-06-15T12:00:38.281Z,97896.80
2018-06-15T12:03:05.972Z,97899.02
2018-06-15T12:05:33.516Z,97893.55
2018-06-15T12:08:01.042Z,97893.70
2018-06-15T12:10:28.582Z,97899.02
2018-06-15T12:12:56.116Z,97895.84
2018-06-15T12:15:23.652Z,97892.59
2018-06-15T12:17:51.206Z,97892.16
2018-06-15T12:20:18.728Z,97889.30
2018-06-15T12:22:46.278Z,97892.16
2018-06-15T12:25:13.818Z,97893.05
2018-06-15T12:27:41.359Z,97894.72
2018-06-15T12:30:08.887Z,97893.94
2018-06-15T12:32:36.467Z,97890.28
2018-06-15T12:35:04.064Z,97905.78
2018-06-15T12:37:31.578Z,97901.48
2018-06-15T12:39:59.123Z,97901.55
2018-06-15T12:42:26.661Z,97901.88
2018-06-15T12:44:54.173Z,97902.24
2018-06-15T12:47:21.739Z,97901.53
2018-06-15T12:49:49.257Z,97905.59
2018-06-15T12:52:16.779Z,97901.09
2018-06-15T12:54:44.405Z,97897.30
2018-06-15T12:57:11.917Z,97901.53
2018-06-15T12:59:39.451Z,97907.96
2018-06-15T13:02:07.000Z,97908.62
2018-06-15T13:04:34.525Z,97908.12
2018-06-15T13:07:02.060Z,97910.59
2018-06-15T13:09:29.622Z,97910.03
2018-06-15T13:11:57.147Z,97909.84
2018-06-15T13:14:24.675Z,97911.09
2018-06-15T13:16:52.282Z,97910.31
2018-06-15T13:19:19.804Z,97898.91
2018-06-15T13:21:47.330Z,97905.89
2018-06-15T13:24:14.883Z,97908.13
2018-06-15T13:26:42.418Z,97911.25
2018-06-15T13:29:09.937Z,97908.70
2018-06-15T13:31:37.506Z,97908.96
2018-06-15T13:34:05.039Z,97906.19
2018-06-15T13:36:32.558Z,97904.47
2018-06-15T13:39:00.106Z,97902.59
2018-06-15T13:41:27.638Z,97913.64
2018-06-15T13:43:55.164Z,97913.72
2018-06-15T13:46:22.738Z,97905.50
2018-06-15T13:48:50.274Z,97916.24
2018-06-15T13:51:17.870Z,97908.79
2018-06-15T13:53:45.483Z,97914.97
2018-06-15T13:56:13.090Z,97917.59
2018-06-15T13:58:40.672Z,97918.52
2018-06-15T14:01:08.323Z,97914.92
2018-06-15T14:03:35.871Z,97915.09
2018-06-15T14:06:03.790Z,97915.55
2018-06-15T14:08:31.413Z,97915.92
2018-06-15T14:10:59.226Z,97919.09
2018-06-15T14:13:26.773Z,97918.67
2018-06-15T14:15:54.733Z,97914.23
2018-06-15T14:18:22.454Z,97916.77
2018-06-15T14:20:50.631Z,97919.28
2018-06-15T14:23:18.423Z,97920.70
2018-06-15T14:25:46.056Z,97913.34
2018-06-15T14:28:13.586Z,97921.52
2018-06-15T14:30:41.138Z,97920.08
2018-06-15T14:33:08.714Z,97919.81
2018-06-15T14:35:36.285Z,97915.29
2018-06-15T14:38:03.874Z,97916.70
2018-06-15T14:40:31.429Z,97923.95
2018-06-15T14:42:59.037Z,97921.13
2018-06-15T14:45:26.653Z,97916.78
2018-06-15T14:47:54.202Z,97920.36
2018-06-15T14:50:21.742Z,97925.58
2018-06-15T14:52:49.325Z,97921.62
2018-06-15T14:55:16.968Z,97923.13
2018-06-15T14:57:44.906Z,97920.63
2018-06-15T15:00:12.659Z,97918.84
2018-06-15T15:02:40.200Z,97919.12
2018-06-15T15:05:07.746Z,97920.33
2018-06-15T15:07:35.297Z,97923.33
2018-06-15T15:10:02.926Z,97912.33
2018-06-15T15:12:30.472Z,97912.16
2018-06-15T15:14:58.046Z,97909.76
2018-06-15T15:17:25.595Z,97908.45
2018-06-15T15:19:53.386Z,97908.45
2018-06-15T15:22:20.970Z,97908.93
2018-06-15T15:24:48.534Z,97903.96
2018-06-15T15:27:16.081Z,97900.95
2018-06-15T15:29:43.646Z,97898.50
2018-06-15T15:32:11.215Z,97898.05
2018-06-15T15:34:38.776Z,97896.63
2018-06-15T15:37:06.586Z,97893.62
2018-06-15T15:39:34.206Z,97898.17
2018-06-15T15:42:01.845Z,97899.81
2018-06-15T15:44:29.434Z,97901.42
2018-06-15T15:46:56.995Z,97902.86
2018-06-15T15:49:24.547Z,97895.95
2018-06-15T15:51:52.247Z,97900.60
2018-06-15T15:54:20.609Z,97902.84
2018-06-15T15:56:48.191Z,97901.36
2018-06-15T15:59:15.737Z,97900.77
2018-06-15T16:01:43.280Z,97899.44
2018-06-15T16:04:10.806Z,97899.35
2018-06-15T16:06:38.413Z,97896.76
2018-06-15T16:09:06.517Z,97893.25
2018-06-15T16:11:34.105Z,97898.23
2018-06-15T16:14:01.648Z,97896.89
2018-06-15T16:16:29.210Z,97899.03
2018-06-15T16:18:56.841Z,97896.72
2018-06-15T16:21:24.410Z,97909.89
2018-06-15T16:23:51.982Z,97907.36
2018-06-15T16:26:19.542Z,97908.08
2018-06-15T16:28:47.118Z,97904.86
2018-06-15T16:31:14.651Z,97904.16
2018-06-15T16:33:42.218Z,97903.38
2018-06-15T16:36:09.878Z,97908.72
2018-06-15T16:38:37.443Z,97903.33
2018-06-15T16:41:04.959Z,97906.86
2018-06-15T16:43:32.557Z,97902.57
2018-06-15T16:46:00.139Z,97904.20
2018-06-15T16:48:27.701Z,97901.00
2018-06-15T16:50:55.305Z,97903.48
2018-06-15T16:53:22.846Z,97901.58
2018-06-15T16:55:50.402Z,97905.39
2018-06-15T16:58:17.994Z,97902.94
2018-06-15T17:00:45.546Z,97908.73
2018-06-15T17:03:13.140Z,97909.17
2018-06-15T17:05:40.706Z,97913.78
2018-06-15T17:08:08.315Z,97914.80
2018-06-15T17:10:35.870Z,97912.30
2018-06-15T17:13:03.514Z,97914.05
2018-06-15T17:15:31.070Z,97907.89
2018-06-15T17:17:59.271Z,97910.76
2018-06-15T17:20:26.858Z,97915.68
2018-06-15T17:22:54.382Z,97918.00
2018-06-15T17:25:21.931Z,97915.96
2018-06-15T17:27:49.483Z,97916.97
2018-06-15T17:30:17.016Z,97922.84
2018-06-15T17:32:44.573Z,97920.91
2018-06-15T17:35:12.177Z,97916.81
2018-06-15T17:37:39.697Z,97921.51
2018-06-15T17:40:07.287Z,97916.52
2018-06-15T17:42:36.076Z,97917.92
2018-06-15T17:45:03.693Z,97925.52
2018-06-15T17:47:31.258Z,97930.00
2018-06-15T17:49:58.831Z,97926.42
2018-06-15T17:52:26.410Z,97926.66
2018-06-15T17:54:53.930Z,97920.03
2018-06-15T17:57:21.490Z,97928.40
2018-06-15T17:59:49.030Z,97923.54
2018-06-15T18:02:16.578Z,97927.05
2018-06-15T18:04:44.124Z,97924.02
2018-06-15T18:07:11.670Z,97922.63
2018-06-15T18:09:39.200Z,97921.11
2018-06-15T18:12:06.769Z,97929.61
2018-06-15T18:14:34.314Z,97931.33
2018-06-15T18:17:01.862Z,97930.91
2018-06-15T18:19:29.443Z,97928.75
2018-06-15T18:21:56.983Z,97931.67
2018-06-15T18:24:24.509Z,97932.10
2018-06-15T18:26:52.083Z,97929.39
2018-06-15T18:29:19.602Z,97932.29
2018-06-15T18:31:47.200Z,97933.05
2018-06-15T18:34:14.766Z,97934.03
2018-06-15T18:36:42.323Z,97936.30
2018-06-15T18:39:12.494Z,97934.47
2018-06-15T18:41:40.075Z,97936.63
2018-06-15T18:44:07.818Z,97937.05
2018-06-15T18:46:35.425Z,97938.55
2018-06-15T18:49:02.987Z,97935.51
2018-06-15T18:51:30.547Z,97944.81
2018-06-15T18:53:58.246Z,97945.91
2018-06-15T18:56:25.835Z,97949.70
2018-06-15T18:58:53.379Z,97952.39
2018-06-15T19:01:20.923Z,97947.30
2018-06-15T19:03:48.486Z,97953.25
2018-06-15T19:06:16.048Z,97956.89
2018-06-15T19:08:43.609Z,97962.84
2018-06-15T19:11:11.194Z,97964.02
2018-06-15T19:13:38.914Z,97960.20
2018-06-15T19:16:07.020Z,97959.22
2018-06-15T19:18:34.598Z,97961.06
2018-06-15T19:21:02.139Z,97955.94
2018-06-15T19:23:29.712Z,97959.60
2018-06-15T19:25:57.291Z,97958.40
2018-06-15T19:28:24.879Z,97959.98
2018-06-15T19:30:52.418Z,97959.53
2018-06-15T19:33:19.986Z,97960.38
2018-06-15T19:35:47.554Z,97960.79
2018-06-15T19:38:15.098Z,97957.62
2018-06-15T19:40:42.659Z,97958.22
2018-06-15T19:43:10.219Z,97960.70
2018-06-15T19:45:37.902Z,97960.78
2018-06-15T19:48:05.521Z,97958.33
2018-06-15T19:50:33.082Z,97967.08
2018-06-15T19:53:00.774Z,97964.03
2018-06-15T19:55:28.333Z,97963.67
2018-06-15T19:57:55.826Z,97975.95
2018-06-15T20:00:23.517Z,97964.58
2018-06-15T20:02:51.088Z,97971.76
2018-06-15T20:05:18.679Z,97968.17
2018-06-15T20:07:46.165Z,97968.63
2018-06-15T20:10:13.890Z,97967.94
2018-06-15T20:12:41.573Z,97964.30
2018-06-15T20:15:09.127Z,97963.48
2018-06-15T20:17:37.473Z,97965.37
2018-06-15T20:20:06.090Z,97964.03
2018-06-15T20:22:33.778Z,97966.98
2018-06-15T20:25:01.343Z,97973.42
2018-06-15T20:27:28.989Z,97965.57
2018-06-15T20:29:57.157Z,97969.95
2018-06-15T20:32:24.806Z,97972.02
2018-06-15T20:34:52.355Z,97973.60
2018-06-15T20:37:20.003Z,97969.45
2018-06-15T20:39:48.004Z,97963.36
2018-06-15T20:42:15.577Z,97972.69
2018-06-15T20:44:43.087Z,97978.47
2018-06-15T20:47:10.643Z,97979.92
2018-06-15T20:49:38.159Z,97978.81
2018-06-15T20:52:05.903Z,97978.56
2018-06-15T20:54:33.437Z,97979.37
2018-06-15T20:57:00.986Z,97981.80
2018-06-15T20:59:28.525Z,97981.32
2018-06-15T21:01:56.078Z,97986.45
2018-06-15T21:04:23.599Z,97987.48
2018-06-15T21:06:51.124Z,97989.94
2018-06-15T21:09:18.690Z,97990.73
2018-06-15T21:11:46.238Z,97987.33
2018-06-15T21:14:13.759Z,97991.16
2018-06-15T21:16:41.301Z,97981.38
2018-06-15T21:19:08.802Z,97987.27
2018-06-15T21:21:36.307Z,97990.33
2018-06-15T21:24:04.198Z,97983.20
2018-06-15T21:26:31.696Z,97991.13
2018-06-15T21:28:59.214Z,97989.37
2018-06-15T21:31:26.787Z,97985.94
2018-06-15T21:33:54.326Z,97992.72
2018-06-15T21:36:21.869Z,97995.52
2018-06-15T21:38:49.412Z,97991.95
2018-06-15T21:41:16.942Z,97991.31
2018-06-15T21:43:44.505Z,97990.93
2018-06-15T21:46:12.506Z,97990.58
2018-06-15T21:48:40.074Z,97992.36
2018-06-15T21:51:07.634Z,97992.63
2018-06-15T21:53:35.190Z,97988.18
2018-06-15T21:56:02.705Z,97994.83
2018-06-15T21:58:30.646Z,97993.55
2018-06-15T22:00:58.199Z,97992.05
2018-06-15T22:03:25.964Z,97994.59
2018-06-15T22:05:53.748Z,97997.27
2018-06-15T22:08:21.442Z,97994.73
2018-06-15T22:10:48.966Z,97988.24
2018-06-15T22:13:16.518Z,97993.36
2018-06-15T22:15:44.079Z,97990.17
2018-06-15T22:18:11.610Z,97988.64
2018-06-15T22:20:39.129Z,97987.14
2018-06-15T22:23:06.690Z,97986.25
2018-06-15T22:25:34.372Z,97990.19
2018-06-15T22:28:02.034Z,97978.73
2018-06-15T22:30:29.603Z,97981.66
2018-06-15T22:32:57.106Z,97980.13
2018-06-15T22:35:24.614Z,97980.39
2018-06-15T22:37:52.334Z,97979.63
2018-06-15T22:40:19.882Z,97977.23
2018-06-15T22:42:47.510Z,97978.86
2018-06-15T22:45:15.667Z,97982.83
2018-06-15T22:47:43.178Z,97987.27
2018-06-15T22:50:10.803Z,97980.39
2018-06-15T22:52:38.526Z,97988.16
2018-06-15T22:55:06.330Z,97981.02
2018-06-15T22:57:34.036Z,97985.35
2018-06-15T23:00:01.633Z,97983.83
2018-06-15T23:02:29.210Z,97989.28
2018-06-15T23:05:07.010Z,97985.08
2018-06-15T23:07:34.758Z,97980.63
2018-06-15T23:10:02.586Z,97978.72
2018-06-15T23:12:30.197Z,97981.87
2018-06-15T23:14:57.800Z,97986.20
2018-06-15T23:17:25.334Z,97982.77
2018-06-15T23:19:53.053Z,97978.80
2018-06-15T23:22:20.650Z,97978.80
2018-06-15T23:24:48.384Z,97978.16
2018-06-15T23:27:16.265Z,97974.73
2018-06-15T23:29:43.952Z,97977.41
2018-06-15T23:32:11.617Z,97977.00
2018-06-15T23:34:39.210Z,97971.78
2018-06-15T23:37:06.780Z,97971.24
2018-06-15T23:39:34.438Z,97979.39
2018-06-15T23:42:02.033Z,97972.52
2018-06-15T23:44:29.649Z,97979.30
2018-06-15T23:46:57.365Z,97984.26
2018-06-15T23:49:25.055Z,97973.82
2018-06-15T23:51:52.569Z,97979.14
2018-06-15T23:54:20.106Z,97978.86
2018-06-15T23:56:47.675Z,97976.56
2018-06-15T23:59:15.174Z,97980.23
